createdAt,value
2022-12-01T00:00:04.407Z,1020.7
2022-12-01T00:01:07.745Z,1020.7
2022-12-01T00:02:11.354Z,1020.7
2022-12-01T00:03:15.699Z,1020.7
2022-12-01T00:04:20.517Z,1020.7
2022-12-01T00:05:23.663Z,1020.8
2022-12-01T00:06:26.733Z,1020.8
2022-12-01T00:07:29.805Z,1020.8
2022-12-01T00:08:32.881Z,1020.8
2022-12-01T00:09:35.969Z,1020.8
2022-12-01T00:10:38.449Z,1020.8
2022-12-01T00:11:41.807Z,1020.8
2022-12-01T00:12:44.592Z,1020.7
2022-12-01T00:13:47.014Z,1020.8
2022-12-01T00:14:49.512Z,1020.7
2022-12-01T00:15:52.645Z,1020.8
2022-12-01T00:16:56.359Z,1020.7
2022-12-01T00:17:59.516Z,1020.7
2022-12-01T00:19:02.511Z,1020.8
2022-12-01T00:20:06.415Z,1020.8
2022-12-01T00:21:09.121Z,1020.8
2022-12-01T00:22:12.526Z,1020.8
2022-12-01T00:23:15.688Z,1020.8
2022-12-01T00:24:18.487Z,1020.7
2022-12-01T00:25:21.877Z,1020.7
2022-12-01T00:26:24.922Z,1020.7
2022-12-01T00:27:28.543Z,1020.7
2022-12-01T00:28:31.699Z,1020.7
2022-12-01T00:29:34.860Z,1020.7
2022-12-01T00:30:38.240Z,1020.7
2022-12-01T00:31:40.633Z,1020.7
2022-12-01T00:32:43.481Z,1020.6
2022-12-01T00:33:45.702Z,1020.7
2022-12-01T00:34:49.044Z,1020.7
2022-12-01T00:35:52.898Z,1020.7
2022-12-01T00:36:56.227Z,1020.7
2022-12-01T00:37:59.364Z,1020.7
2022-12-01T00:39:01.787Z,1020.7
2022-12-01T00:40:05.164Z,1020.7
2022-12-01T00:41:07.581Z,1020.7
2022-12-01T00:42:13.727Z,1020.7
2022-12-01T00:43:16.526Z,1020.7
2022-12-01T00:44:19.599Z,1020.7
2022-12-01T00:45:22.302Z,1020.7
2022-12-01T00:46:25.025Z,1020.7
2022-12-01T00:47:28.422Z,1020.7
2022-12-01T00:48:31.246Z,1020.7
2022-12-01T00:49:33.821Z,1020.7
2022-12-01T00:50:37.145Z,1020.7
2022-12-01T00:51:40.949Z,1020.7
2022-12-01T00:52:43.985Z,1020.7
2022-12-01T00:53:47.035Z,1020.7
2022-12-01T00:54:50.080Z,1020.7
2022-12-01T00:55:52.769Z,1020.7
2022-12-01T00:56:56.247Z,1020.7
2022-12-01T00:57:59.463Z,1020.7
2022-12-01T00:59:02.532Z,1020.7
2022-12-01T01:00:05.036Z,1020.7
2022-12-01T01:01:08.240Z,1020.7
2022-12-01T01:02:11.115Z,1020.7
2022-12-01T01:03:13.808Z,1020.7
2022-12-01T01:04:16.852Z,1020.7
2022-12-01T01:05:19.340Z,1020.7
2022-12-01T01:06:21.509Z,1020.7
2022-12-01T01:07:25.810Z,1020.7
2022-12-01T01:08:29.111Z,1020.8
2022-12-01T01:09:32.159Z,1020.8
2022-12-01T01:10:34.856Z,1020.8
2022-12-01T01:11:37.627Z,1020.8
2022-12-01T01:12:40.620Z,1020.8
2022-12-01T01:13:42.751Z,1020.8
2022-12-01T01:14:45.524Z,1020.8
2022-12-01T01:15:48.048Z,1020.8
2022-12-01T01:16:51.655Z,1020.8
2022-12-01T01:17:55.214Z,1020.8
2022-12-01T01:18:58.310Z,1020.8
2022-12-01T01:20:01.090Z,1020.8
2022-12-01T01:21:03.861Z,1020.8
2022-12-01T01:22:06.556Z,1020.9
2022-12-01T01:23:10.512Z,1020.9
2022-12-01T01:24:12.930Z,1020.9
2022-12-01T01:25:16.010Z,1020.9
2022-12-01T01:26:19.006Z,1020.8
2022-12-01T01:27:22.330Z,1020.9
2022-12-01T01:28:25.528Z,1020.9
2022-12-01T01:29:28.308Z,1020.9
2022-12-01T01:30:30.632Z,1020.9
2022-12-01T01:31:33.603Z,1020.9
2022-12-01T01:32:36.933Z,1020.9
2022-12-01T01:33:40.430Z,1020.9
2022-12-01T01:34:43.179Z,1020.9
2022-12-01T01:35:45.954Z,1020.9
2022-12-01T01:36:49.012Z,1020.9
2022-12-01T01:37:51.997Z,1020.9
2022-12-01T01:38:55.830Z,1020.9
2022-12-01T01:39:58.254Z,1020.9
2022-12-01T01:41:00.550Z,1020.9
2022-12-01T01:42:04.252Z,1020.9
2022-12-01T01:43:07.580Z,1021
2022-12-01T01:44:10.644Z,1020.9
2022-12-01T01:45:13.340Z,1020.9
2022-12-01T01:46:16.644Z,1021
2022-12-01T01:47:20.670Z,1021
2022-12-01T01:48:23.548Z,1021
2022-12-01T01:49:26.335Z,1021
2022-12-01T01:50:29.339Z,1020.9
2022-12-01T01:51:32.308Z,1021
2022-12-01T01:52:35.359Z,1021
2022-12-01T01:53:38.215Z,1021
2022-12-01T01:54:42.045Z,1021
2022-12-01T01:55:44.534Z,1020.9
2022-12-01T01:56:46.971Z,1021
2022-12-01T01:57:50.211Z,1020.9
2022-12-01T01:58:53.626Z,1020.9
2022-12-01T01:59:56.707Z,1020.9
2022-12-01T02:00:59.254Z,1020.9
2022-12-01T02:02:02.852Z,1020.9
2022-12-01T02:03:06.630Z,1020.9
2022-12-01T02:04:09.335Z,1020.9
2022-12-01T02:05:12.311Z,1020.9
2022-12-01T02:06:14.913Z,1020.9
2022-12-01T02:07:17.399Z,1020.9
2022-12-01T02:08:19.949Z,1020.9
2022-12-01T02:09:22.656Z,1020.9
2022-12-01T02:10:26.760Z,1020.9
2022-12-01T02:11:28.778Z,1020.9
2022-12-01T02:12:31.783Z,1020.9
2022-12-01T02:13:34.758Z,1020.9
2022-12-01T02:14:37.251Z,1020.9
2022-12-01T02:15:39.390Z,1020.9
2022-12-01T02:16:42.711Z,1021
2022-12-01T02:17:46.368Z,1020.9
2022-12-01T02:18:49.806Z,1021
2022-12-01T02:19:52.384Z,1020.9
2022-12-01T02:20:55.508Z,1020.9
2022-12-01T02:21:58.405Z,1020.9
2022-12-01T02:23:01.086Z,1021
2022-12-01T02:24:03.885Z,1020.9
2022-12-01T02:25:06.726Z,1020.9
2022-12-01T02:26:10.564Z,1021
2022-12-01T02:27:13.541Z,1021
2022-12-01T02:28:16.729Z,1021
2022-12-01T02:29:19.703Z,1020.9
2022-12-01T02:30:22.933Z,1021
2022-12-01T02:31:25.737Z,1021
2022-12-01T02:32:28.435Z,1021
2022-12-01T02:33:31.289Z,1021
2022-12-01T02:34:34.722Z,1021
2022-12-01T02:35:38.190Z,1021
2022-12-01T02:36:40.336Z,1021
2022-12-01T02:37:43.616Z,1021
2022-12-01T02:38:46.747Z,1021
2022-12-01T02:39:50.075Z,1021
2022-12-01T02:40:53.584Z,1021
2022-12-01T02:41:57.484Z,1021.1
2022-12-01T02:43:00.535Z,1021
2022-12-01T02:44:02.759Z,1021.1
2022-12-01T02:45:05.454Z,1021.1
2022-12-01T02:46:08.002Z,1021
2022-12-01T02:47:11.291Z,1021.1
2022-12-01T02:48:14.102Z,1021.1
2022-12-01T02:49:16.523Z,1021.1
2022-12-01T02:50:18.935Z,1021.1
2022-12-01T02:51:22.267Z,1021.1
2022-12-01T02:52:24.685Z,1021.1
2022-12-01T02:53:27.513Z,1021.1
2022-12-01T02:54:30.010Z,1021.1
2022-12-01T02:55:32.691Z,1021
2022-12-01T02:56:35.694Z,1021.1
2022-12-01T02:57:39.857Z,1021.1
2022-12-01T02:58:42.724Z,1021.1
2022-12-01T02:59:46.229Z,1021
2022-12-01T03:00:51.084Z,1021.1
2022-12-01T03:01:54.297Z,1021
2022-12-01T03:02:57.345Z,1021
2022-12-01T03:04:00.602Z,1021
2022-12-01T03:05:03.392Z,1021
2022-12-01T03:06:06.172Z,1021
2022-12-01T03:07:09.886Z,1021
2022-12-01T03:08:13.021Z,1021
2022-12-01T03:09:15.915Z,1021
2022-12-01T03:10:18.888Z,1021
2022-12-01T03:11:21.574Z,1021
2022-12-01T03:12:24.958Z,1021.1
2022-12-01T03:13:28.787Z,1021
2022-12-01T03:14:32.065Z,1021
2022-12-01T03:15:34.889Z,1021
2022-12-01T03:16:37.868Z,1021
2022-12-01T03:17:40.721Z,1021
2022-12-01T03:18:43.578Z,1021
2022-12-01T03:19:46.966Z,1021
2022-12-01T03:20:51.840Z,1021
2022-12-01T03:21:54.622Z,1021.1
2022-12-01T03:22:58.289Z,1021
2022-12-01T03:24:01.329Z,1021
2022-12-01T03:25:04.415Z,1021
2022-12-01T03:26:07.482Z,1021
2022-12-01T03:27:10.807Z,1021
2022-12-01T03:28:22.715Z,1021
2022-12-01T03:29:26.980Z,1021
2022-12-01T03:30:30.057Z,1021.1
2022-12-01T03:31:33.003Z,1021.1
2022-12-01T03:32:36.890Z,1021.1
2022-12-01T03:33:38.842Z,1021.1
2022-12-01T03:34:42.100Z,1021.1
2022-12-01T03:35:45.422Z,1021
2022-12-01T03:36:48.123Z,1021.1
2022-12-01T03:37:50.898Z,1021
2022-12-01T03:38:53.661Z,1021
2022-12-01T03:40:01.444Z,1021
2022-12-01T03:41:04.776Z,1021
2022-12-01T03:42:08.186Z,1021
2022-12-01T03:43:11.161Z,1021
2022-12-01T03:44:14.511Z,1021
2022-12-01T03:45:18.399Z,1021
2022-12-01T03:46:21.915Z,1021
2022-12-01T03:47:25.621Z,1021
2022-12-01T03:48:28.425Z,1020.9
2022-12-01T03:49:31.781Z,1020.9
2022-12-01T03:50:35.299Z,1020.9
2022-12-01T03:51:37.871Z,1020.9
2022-12-01T03:52:41.195Z,1020.9
2022-12-01T03:53:43.709Z,1021
2022-12-01T03:54:46.547Z,1021
2022-12-01T03:55:49.258Z,1021
2022-12-01T03:56:52.257Z,1021
2022-12-01T03:57:56.258Z,1021
2022-12-01T03:58:59.110Z,1021
2022-12-01T04:00:02.380Z,1021
2022-12-01T04:01:06.569Z,1021
2022-12-01T04:02:10.012Z,1021
2022-12-01T04:03:14.188Z,1021
2022-12-01T04:04:17.960Z,1021
2022-12-01T04:05:25.697Z,1021
2022-12-01T04:06:29.159Z,1021
2022-12-01T04:07:32.947Z,1021
2022-12-01T04:08:36.208Z,1021
2022-12-01T04:09:39.015Z,1021
2022-12-01T04:10:41.525Z,1021
2022-12-01T04:11:45.229Z,1021
2022-12-01T04:12:48.616Z,1021
2022-12-01T04:13:51.113Z,1021
2022-12-01T04:14:54.814Z,1021
2022-12-01T04:15:58.140Z,1021
2022-12-01T04:17:02.633Z,1021
2022-12-01T04:18:05.133Z,1021
2022-12-01T04:19:08.186Z,1021
2022-12-01T04:20:10.881Z,1021
2022-12-01T04:21:13.459Z,1021
2022-12-01T04:22:15.762Z,1021
2022-12-01T04:23:18.255Z,1021
2022-12-01T04:24:21.028Z,1021
2022-12-01T04:25:23.440Z,1021
2022-12-01T04:26:26.871Z,1021
2022-12-01T04:27:29.919Z,1021
2022-12-01T04:28:32.516Z,1021
2022-12-01T04:29:35.834Z,1021
2022-12-01T04:30:38.797Z,1021
2022-12-01T04:31:41.998Z,1021
2022-12-01T04:32:46.448Z,1021
2022-12-01T04:33:49.801Z,1021
2022-12-01T04:34:52.921Z,1021
2022-12-01T04:35:55.201Z,1021
2022-12-01T04:36:57.348Z,1021
2022-12-01T04:37:59.978Z,1021.1
2022-12-01T04:39:02.749Z,1021.1
2022-12-01T04:40:05.833Z,1021.1
2022-12-01T04:41:08.316Z,1021.1
2022-12-01T04:42:11.989Z,1021.1
2022-12-01T04:43:14.546Z,1021.1
2022-12-01T04:44:16.790Z,1021.1
2022-12-01T04:45:19.623Z,1021.1
2022-12-01T04:46:22.825Z,1021.1
2022-12-01T04:47:26.533Z,1021.1
2022-12-01T04:48:30.651Z,1021.1
2022-12-01T04:49:33.528Z,1021.1
2022-12-01T04:50:36.404Z,1021.1
2022-12-01T04:51:38.989Z,1021.2
2022-12-01T04:52:41.825Z,1021.2
2022-12-01T04:53:44.268Z,1021.2
2022-12-01T04:54:47.431Z,1021.2
2022-12-01T04:55:50.245Z,1021.1
2022-12-01T04:56:53.221Z,1021.2
2022-12-01T04:57:56.417Z,1021.1
2022-12-01T04:58:59.498Z,1021.1
2022-12-01T05:00:02.284Z,1021.1
2022-12-01T05:01:05.141Z,1021.1
2022-12-01T05:02:09.179Z,1021.1
2022-12-01T05:03:15.753Z,1021.1
2022-12-01T05:04:19.848Z,1021.1
2022-12-01T05:05:22.651Z,1021.1
2022-12-01T05:06:25.352Z,1021.1
2022-12-01T05:07:28.304Z,1021.2
2022-12-01T05:08:31.881Z,1021.2
2022-12-01T05:09:34.952Z,1021.2
2022-12-01T05:10:37.449Z,1021.2
2022-12-01T05:11:40.171Z,1021.2
2022-12-01T05:12:43.770Z,1021.2
2022-12-01T05:13:46.475Z,1021.2
2022-12-01T05:14:49.044Z,1021.2
2022-12-01T05:15:52.359Z,1021.2
2022-12-01T05:16:54.944Z,1021.2
2022-12-01T05:17:57.640Z,1021.2
2022-12-01T05:19:00.468Z,1021.2
2022-12-01T05:20:04.843Z,1021.2
2022-12-01T05:21:07.614Z,1021.2
2022-12-01T05:22:10.106Z,1021.2
2022-12-01T05:23:17.471Z,1021.2
2022-12-01T05:24:20.806Z,1021.2
2022-12-01T05:25:24.054Z,1021.2
2022-12-01T05:26:27.133Z,1021.2
2022-12-01T05:27:30.564Z,1021.2
2022-12-01T05:28:33.256Z,1021.2
2022-12-01T05:29:36.418Z,1021.2
2022-12-01T05:30:40.032Z,1021.2
2022-12-01T05:31:43.656Z,1021.3
2022-12-01T05:32:47.330Z,1021.2
2022-12-01T05:33:49.697Z,1021.3
2022-12-01T05:34:53.302Z,1021.3
2022-12-01T05:35:57.484Z,1021.3
2022-12-01T05:37:00.556Z,1021.3
2022-12-01T05:38:08.425Z,1021.3
2022-12-01T05:39:11.395Z,1021.3
2022-12-01T05:40:14.722Z,1021.3
2022-12-01T05:41:17.148Z,1021.3
2022-12-01T05:42:20.225Z,1021.3
2022-12-01T05:43:29.792Z,1021.3
2022-12-01T05:44:32.937Z,1021.3
2022-12-01T05:45:35.717Z,1021.3
2022-12-01T05:46:38.865Z,1021.3
2022-12-01T05:47:41.311Z,1021.3
2022-12-01T05:48:44.150Z,1021.3
2022-12-01T05:49:47.351Z,1021.3
2022-12-01T05:50:51.359Z,1021.3
2022-12-01T05:51:55.223Z,1021.3
2022-12-01T05:52:58.550Z,1021.3
2022-12-01T05:54:01.423Z,1021.3
2022-12-01T05:55:05.037Z,1021.3
2022-12-01T05:56:07.563Z,1021.3
2022-12-01T05:57:10.625Z,1021.3
2022-12-01T05:58:13.792Z,1021.3
2022-12-01T05:59:16.301Z,1021.3
2022-12-01T06:00:19.428Z,1021.3
2022-12-01T06:01:22.756Z,1021.3
2022-12-01T06:02:25.851Z,1021.3
2022-12-01T06:03:28.907Z,1021.4
2022-12-01T06:04:31.852Z,1021.4
2022-12-01T06:05:34.634Z,1021.4
2022-12-01T06:06:37.320Z,1021.4
2022-12-01T06:07:41.624Z,1021.4
2022-12-01T06:08:44.387Z,1021.4
2022-12-01T06:09:47.982Z,1021.4
2022-12-01T06:10:52.171Z,1021.4
2022-12-01T06:11:55.586Z,1021.5
2022-12-01T06:12:58.420Z,1021.5
2022-12-01T06:14:02.018Z,1021.5
2022-12-01T06:15:04.598Z,1021.5
2022-12-01T06:16:07.390Z,1021.6
2022-12-01T06:17:10.451Z,1021.5
2022-12-01T06:18:13.572Z,1021.5
2022-12-01T06:19:16.847Z,1021.6
2022-12-01T06:20:20.251Z,1021.6
2022-12-01T06:21:23.601Z,1021.5
2022-12-01T06:22:26.416Z,1021.6
2022-12-01T06:23:31.330Z,1021.6
2022-12-01T06:24:34.303Z,1021.6
2022-12-01T06:25:37.085Z,1021.5
2022-12-01T06:26:40.346Z,1021.5
2022-12-01T06:27:42.494Z,1021.5
2022-12-01T06:28:45.522Z,1021.5
2022-12-01T06:29:48.538Z,1021.5
2022-12-01T06:31:01.216Z,1021.5
2022-12-01T06:32:06.313Z,1021.6
2022-12-01T06:33:09.338Z,1021.6
2022-12-01T06:34:11.824Z,1021.6
2022-12-01T06:35:14.915Z,1021.6
2022-12-01T06:36:17.407Z,1021.6
2022-12-01T06:37:20.731Z,1021.6
2022-12-01T06:38:23.145Z,1021.6
2022-12-01T06:39:27.302Z,1021.6
2022-12-01T06:40:29.435Z,1021.6
2022-12-01T06:41:32.539Z,1021.6
2022-12-01T06:42:35.787Z,1021.6
2022-12-01T06:43:39.116Z,1021.6
2022-12-01T06:44:42.091Z,1021.6
2022-12-01T06:45:45.802Z,1021.6
2022-12-01T06:46:49.197Z,1021.6
2022-12-01T06:47:51.620Z,1021.6
2022-12-01T06:48:54.473Z,1021.6
2022-12-01T06:49:56.948Z,1021.6
2022-12-01T06:51:00.329Z,1021.6
2022-12-01T06:52:02.477Z,1021.6
2022-12-01T06:53:05.598Z,1021.6
2022-12-01T06:54:08.014Z,1021.6
2022-12-01T06:55:12.059Z,1021.6
2022-12-01T06:56:15.692Z,1021.6
2022-12-01T06:57:20.788Z,1021.6
2022-12-01T06:58:25.525Z,1021.7
2022-12-01T06:59:30.224Z,1021.7
2022-12-01T07:00:35.030Z,1021.7
2022-12-01T07:01:37.713Z,1021.7
2022-12-01T07:02:40.359Z,1021.7
2022-12-01T07:03:43.462Z,1021.7
2022-12-01T07:04:46.582Z,1021.7
2022-12-01T07:05:49.354Z,1021.8
2022-12-01T07:06:52.085Z,1021.8
2022-12-01T07:08:00.054Z,1021.8
2022-12-01T07:09:03.018Z,1021.8
2022-12-01T07:10:06.168Z,1021.8
2022-12-01T07:11:10.360Z,1021.8
2022-12-01T07:12:13.495Z,1021.8
2022-12-01T07:13:16.649Z,1021.8
2022-12-01T07:14:19.976Z,1021.8
2022-12-01T07:15:22.411Z,1021.9
2022-12-01T07:16:25.956Z,1021.8
2022-12-01T07:17:29.473Z,1021.9
2022-12-01T07:18:32.808Z,1021.9
2022-12-01T07:19:35.241Z,1021.9
2022-12-01T07:20:38.078Z,1021.8
2022-12-01T07:21:41.678Z,1021.8
2022-12-01T07:22:44.739Z,1021.8
2022-12-01T07:23:47.792Z,1021.8
2022-12-01T07:24:50.771Z,1021.8
2022-12-01T07:25:53.281Z,1021.8
2022-12-01T07:26:57.396Z,1021.8
2022-12-01T07:28:00.035Z,1021.8
2022-12-01T07:29:03.374Z,1021.8
2022-12-01T07:30:06.425Z,1021.8
2022-12-01T07:31:09.193Z,1021.9
2022-12-01T07:32:13.110Z,1021.8
2022-12-01T07:33:16.513Z,1021.9
2022-12-01T07:34:19.850Z,1021.9
2022-12-01T07:35:22.546Z,1021.9
2022-12-01T07:36:25.755Z,1021.9
2022-12-01T07:37:29.019Z,1021.9
2022-12-01T07:38:32.284Z,1021.9
2022-12-01T07:39:35.463Z,1021.9
2022-12-01T07:40:38.315Z,1021.9
2022-12-01T07:41:41.018Z,1022
2022-12-01T07:42:45.109Z,1021.9
2022-12-01T07:43:47.413Z,1021.9
2022-12-01T07:44:49.840Z,1021.9
2022-12-01T07:45:52.770Z,1021.9
2022-12-01T07:46:55.970Z,1021.9
2022-12-01T07:47:59.106Z,1021.9
2022-12-01T07:49:01.915Z,1021.9
2022-12-01T07:50:04.887Z,1021.9
2022-12-01T07:51:08.322Z,1022
2022-12-01T07:52:11.094Z,1021.9
2022-12-01T07:53:14.140Z,1022
2022-12-01T07:54:16.585Z,1022
2022-12-01T07:55:19.659Z,1022
2022-12-01T07:56:23.161Z,1022
2022-12-01T07:57:25.860Z,1022
2022-12-01T07:58:30.044Z,1022.1
2022-12-01T07:59:32.738Z,1022
2022-12-01T08:00:35.997Z,1022.1
2022-12-01T08:01:45.049Z,1022
2022-12-01T08:02:48.323Z,1022.1
2022-12-01T08:03:52.548Z,1022.1
2022-12-01T08:04:55.805Z,1022.1
2022-12-01T08:05:59.007Z,1022.1
2022-12-01T08:07:02.105Z,1022.1
2022-12-01T08:08:05.380Z,1022.1
2022-12-01T08:09:09.446Z,1022.1
2022-12-01T08:10:12.800Z,1022.1
2022-12-01T08:11:16.280Z,1022.1
2022-12-01T08:12:19.246Z,1022.1
2022-12-01T08:13:22.369Z,1022.1
2022-12-01T08:14:26.751Z,1022.1
2022-12-01T08:15:29.933Z,1022.1
2022-12-01T08:16:33.309Z,1022.2
2022-12-01T08:17:36.369Z,1022.2
2022-12-01T08:18:39.603Z,1022.2
2022-12-01T08:19:42.574Z,1022.2
2022-12-01T08:20:45.931Z,1022.2
2022-12-01T08:21:49.659Z,1022.2
2022-12-01T08:22:52.760Z,1022.2
2022-12-01T08:23:55.787Z,1022.3
2022-12-01T08:24:58.638Z,1022.3
2022-12-01T08:26:01.629Z,1022.2
2022-12-01T08:27:05.340Z,1022.2
2022-12-01T08:28:08.476Z,1022.3
2022-12-01T08:29:20.278Z,1022.2
2022-12-01T08:30:24.679Z,1022.2
2022-12-01T08:31:27.409Z,1022.3
2022-12-01T08:32:31.297Z,1022.3
2022-12-01T08:33:34.687Z,1022.2
2022-12-01T08:34:38.116Z,1022.2
2022-12-01T08:35:40.339Z,1022.2
2022-12-01T08:36:43.377Z,1022.3
2022-12-01T08:37:46.252Z,1022.3
2022-12-01T08:38:49.678Z,1022.3
2022-12-01T08:39:52.709Z,1022.3
2022-12-01T08:40:55.592Z,1022.3
2022-12-01T08:41:58.110Z,1022.3
2022-12-01T08:43:01.266Z,1022.3
2022-12-01T08:44:04.919Z,1022.3
2022-12-01T08:45:07.688Z,1022.3
2022-12-01T08:46:11.909Z,1022.3
2022-12-01T08:47:19.194Z,1022.3
2022-12-01T08:48:22.631Z,1022.3
2022-12-01T08:49:25.481Z,1022.3
2022-12-01T08:50:28.475Z,1022.3
2022-12-01T08:51:31.403Z,1022.3
2022-12-01T08:52:34.739Z,1022.3
2022-12-01T08:53:45.987Z,1022.4
2022-12-01T08:54:49.663Z,1022.3
2022-12-01T08:55:52.647Z,1022.4
2022-12-01T08:56:55.695Z,1022.4
2022-12-01T08:57:59.045Z,1022.4
2022-12-01T08:59:01.813Z,1022.4
2022-12-01T09:00:05.239Z,1022.4
2022-12-01T09:01:08.014Z,1022.3
2022-12-01T09:02:12.216Z,1022.3
2022-12-01T09:03:15.179Z,1022.3
2022-12-01T09:04:17.567Z,1022.4
2022-12-01T09:05:20.441Z,1022.4
2022-12-01T09:06:23.874Z,1022.3
2022-12-01T09:07:27.718Z,1022.3
2022-12-01T09:08:31.076Z,1022.4
2022-12-01T09:09:34.784Z,1022.4
2022-12-01T09:10:37.838Z,1022.4
2022-12-01T09:11:40.618Z,1022.4
2022-12-01T09:12:43.421Z,1022.4
2022-12-01T09:13:54.778Z,1022.4
2022-12-01T09:14:58.277Z,1022.5
2022-12-01T09:16:01.815Z,1022.4
2022-12-01T09:17:05.226Z,1022.5
2022-12-01T09:18:09.403Z,1022.4
2022-12-01T09:19:14.552Z,1022.4
2022-12-01T09:20:27.827Z,1022.4
2022-12-01T09:21:30.979Z,1022.5
2022-12-01T09:22:34.149Z,1022.5
2022-12-01T09:23:37.197Z,1022.5
2022-12-01T09:24:40.531Z,1022.5
2022-12-01T09:25:44.007Z,1022.5
2022-12-01T09:26:46.720Z,1022.5
2022-12-01T09:27:49.142Z,1022.5
2022-12-01T09:28:52.565Z,1022.5
2022-12-01T09:29:56.230Z,1022.5
2022-12-01T09:30:59.207Z,1022.6
2022-12-01T09:32:03.210Z,1022.5
2022-12-01T09:33:06.903Z,1022.6
2022-12-01T09:34:11.004Z,1022.6
2022-12-01T09:35:13.416Z,1022.6
2022-12-01T09:36:24.808Z,1022.6
2022-12-01T09:37:27.302Z,1022.6
2022-12-01T09:38:30.155Z,1022.6
2022-12-01T09:39:33.561Z,1022.6
2022-12-01T09:40:36.793Z,1022.6
2022-12-01T09:41:39.877Z,1022.5
2022-12-01T09:42:42.995Z,1022.5
2022-12-01T09:43:45.852Z,1022.5
2022-12-01T09:44:49.197Z,1022.5
2022-12-01T09:45:52.377Z,1022.5
2022-12-01T09:46:55.709Z,1022.5
2022-12-01T09:47:59.318Z,1022.5
2022-12-01T09:49:02.661Z,1022.5
2022-12-01T09:50:06.829Z,1022.5
2022-12-01T09:51:10.610Z,1022.5
2022-12-01T09:52:14.322Z,1022.5
2022-12-01T09:53:17.302Z,1022.5
2022-12-01T09:54:20.654Z,1022.5
2022-12-01T09:55:24.327Z,1022.4
2022-12-01T09:56:27.466Z,1022.4
2022-12-01T09:57:31.169Z,1022.4
2022-12-01T09:58:34.018Z,1022.4
2022-12-01T09:59:36.349Z,1022.4
2022-12-01T10:00:39.576Z,1022.4
2022-12-01T10:01:43.211Z,1022.4
2022-12-01T10:02:46.871Z,1022.4
2022-12-01T10:03:49.851Z,1022.4
2022-12-01T10:04:52.832Z,1022.4
2022-12-01T10:06:28.622Z,1022.4
2022-12-01T10:07:33.230Z,1022.4
2022-12-01T10:08:36.732Z,1022.4
2022-12-01T10:09:39.514Z,1022.4
2022-12-01T10:10:41.668Z,1022.4
2022-12-01T10:11:44.396Z,1022.4
2022-12-01T10:12:47.463Z,1022.4
2022-12-01T10:13:50.938Z,1022.3
2022-12-01T10:14:53.917Z,1022.3
2022-12-01T10:15:57.927Z,1022.3
2022-12-01T10:17:01.465Z,1022.3
2022-12-01T10:18:04.263Z,1022.3
2022-12-01T10:19:07.859Z,1022.3
2022-12-01T10:20:11.182Z,1022.3
2022-12-01T10:21:15.333Z,1022.3
2022-12-01T10:22:18.093Z,1022.3
2022-12-01T10:23:21.011Z,1022.3
2022-12-01T10:24:23.858Z,1022.3
2022-12-01T10:25:27.265Z,1022.3
2022-12-01T10:26:30.670Z,1022.3
2022-12-01T10:27:34.374Z,1022.3
2022-12-01T10:28:37.707Z,1022.3
2022-12-01T10:29:47.832Z,1022.3
2022-12-01T10:30:53.935Z,1022.3
2022-12-01T10:31:57.267Z,1022.2
2022-12-01T10:33:01.224Z,1022.2
2022-12-01T10:34:04.863Z,1022.3
2022-12-01T10:35:07.087Z,1022.3
2022-12-01T10:36:10.803Z,1022.2
2022-12-01T10:37:15.070Z,1022.2
2022-12-01T10:38:18.424Z,1022.2
2022-12-01T10:39:21.501Z,1022.2
2022-12-01T10:40:24.560Z,1022.2
2022-12-01T10:41:27.685Z,1022.2
2022-12-01T10:42:31.740Z,1022.2
2022-12-01T10:43:35.158Z,1022.2
2022-12-01T10:44:38.594Z,1022.1
2022-12-01T10:45:41.866Z,1022.2
2022-12-01T10:46:45.674Z,1022.1
2022-12-01T10:47:48.445Z,1022.1
2022-12-01T10:48:56.332Z,1022.2
2022-12-01T10:49:59.663Z,1022.2
2022-12-01T10:51:02.081Z,1022.2
2022-12-01T10:52:05.148Z,1022.2
2022-12-01T10:53:09.086Z,1022.1
2022-12-01T10:54:12.450Z,1022.1
2022-12-01T10:55:14.968Z,1022.1
2022-12-01T10:56:18.096Z,1022.1
2022-12-01T10:57:21.528Z,1022.1
2022-12-01T10:58:24.574Z,1022.1
2022-12-01T10:59:27.646Z,1022
2022-12-01T11:01:00.907Z,1022.1
2022-12-01T11:02:06.447Z,1022.1
2022-12-01T11:03:10.522Z,1022.1
2022-12-01T11:04:24.583Z,1022.1
2022-12-01T11:05:27.622Z,1022.1
2022-12-01T11:06:31.303Z,1022.1
2022-12-01T11:07:34.823Z,1022.1
2022-12-01T11:08:39.339Z,1022.1
2022-12-01T11:09:42.705Z,1022.1
2022-12-01T11:10:46.116Z,1022.1
2022-12-01T11:11:49.455Z,1022.1
2022-12-01T11:12:52.812Z,1022.1
2022-12-01T11:13:56.247Z,1022.1
2022-12-01T11:14:59.871Z,1022.1
2022-12-01T11:16:03.123Z,1022.1
2022-12-01T11:17:07.513Z,1022.1
2022-12-01T11:18:11.115Z,1022.1
2022-12-01T11:19:14.219Z,1022.1
2022-12-01T11:20:22.599Z,1022
2022-12-01T11:21:26.266Z,1022
2022-12-01T11:22:29.328Z,1022
2022-12-01T11:23:32.761Z,1022
2022-12-01T11:24:36.881Z,1022
2022-12-01T11:25:40.157Z,1021.9
2022-12-01T11:26:43.482Z,1021.9
2022-12-01T11:27:46.521Z,1022
2022-12-01T11:28:49.568Z,1021.9
2022-12-01T11:29:53.557Z,1022
2022-12-01T11:30:57.476Z,1021.9
2022-12-01T11:32:01.249Z,1021.9
2022-12-01T11:33:05.196Z,1021.9
2022-12-01T11:34:08.617Z,1021.9
2022-12-01T11:35:11.864Z,1021.9
2022-12-01T11:36:16.804Z,1021.9
2022-12-01T11:37:19.479Z,1021.9
2022-12-01T11:38:30.957Z,1021.9
2022-12-01T11:39:35.008Z,1021.9
2022-12-01T11:40:39.146Z,1021.9
2022-12-01T11:41:42.477Z,1021.8
2022-12-01T11:42:46.118Z,1021.8
2022-12-01T11:44:02.728Z,1021.9
2022-12-01T11:45:54.276Z,1021.9
2022-12-01T11:47:23.909Z,1021.9
2022-12-01T11:48:28.209Z,1021.8
2022-12-01T11:49:31.848Z,1021.9
2022-12-01T11:50:35.148Z,1021.9
2022-12-01T11:51:40.737Z,1021.9
2022-12-01T11:52:45.067Z,1021.9
2022-12-01T11:53:49.806Z,1021.9
2022-12-01T11:54:53.825Z,1021.9
2022-12-01T11:55:58.034Z,1021.9
2022-12-01T11:57:34.417Z,1021.9
2022-12-01T11:58:38.654Z,1021.9
2022-12-01T11:59:42.569Z,1021.9
2022-12-01T12:00:45.645Z,1021.9
2022-12-01T12:01:48.374Z,1021.9
2022-12-01T12:02:51.835Z,1021.9
2022-12-01T12:03:55.122Z,1021.9
2022-12-01T12:04:59.369Z,1021.8
2022-12-01T12:06:40.405Z,1021.8
2022-12-01T12:07:45.247Z,1021.8
2022-12-01T12:08:50.915Z,1021.8
2022-12-01T12:09:55.558Z,1021.8
2022-12-01T12:11:00.039Z,1021.8
2022-12-01T12:12:05.289Z,1021.9
2022-12-01T12:13:09.021Z,1021.8
2022-12-01T12:14:12.585Z,1021.8
2022-12-01T12:15:16.429Z,1021.8
2022-12-01T12:16:19.593Z,1021.8
2022-12-01T12:17:22.483Z,1021.8
2022-12-01T12:18:26.245Z,1021.8
2022-12-01T12:19:52.442Z,1021.8
2022-12-01T12:21:15.315Z,1021.7
2022-12-01T12:22:18.763Z,1021.8
2022-12-01T12:23:22.146Z,1021.8
2022-12-01T12:24:25.741Z,1021.7
2022-12-01T12:25:27.959Z,1021.7
2022-12-01T12:26:30.838Z,1021.7
2022-12-01T12:27:34.907Z,1021.7
2022-12-01T12:28:37.913Z,1021.8
2022-12-01T12:29:40.614Z,1021.7
2022-12-01T12:30:43.557Z,1021.7
2022-12-01T12:31:47.597Z,1021.7
2022-12-01T12:32:50.449Z,1021.8
2022-12-01T12:33:53.877Z,1021.7
2022-12-01T12:34:56.654Z,1021.8
2022-12-01T12:36:00.012Z,1021.7
2022-12-01T12:37:02.784Z,1021.8
2022-12-01T12:38:06.457Z,1021.7
2022-12-01T12:39:16.711Z,1021.7
2022-12-01T12:40:20.161Z,1021.8
2022-12-01T12:41:23.879Z,1021.7
2022-12-01T12:42:26.055Z,1021.7
2022-12-01T12:43:30.193Z,1021.7
2022-12-01T12:44:37.885Z,1021.7
2022-12-01T12:45:41.595Z,1021.7
2022-12-01T12:46:44.239Z,1021.7
2022-12-01T12:47:48.514Z,1021.8
2022-12-01T12:49:20.017Z,1021.7
2022-12-01T12:50:24.772Z,1021.7
2022-12-01T12:51:27.626Z,1021.7
2022-12-01T12:52:30.961Z,1021.7
2022-12-01T12:53:32.831Z,1021.7
2022-12-01T12:54:36.454Z,1021.7
2022-12-01T12:55:40.880Z,1021.7
2022-12-01T12:56:44.054Z,1021.7
2022-12-01T12:57:47.779Z,1021.7
2022-12-01T12:58:51.605Z,1021.7
2022-12-01T12:59:54.657Z,1021.7
2022-12-01T13:00:57.704Z,1021.7
2022-12-01T13:02:00.853Z,1021.7
2022-12-01T13:03:03.854Z,1021.7
2022-12-01T13:04:07.591Z,1021.7
2022-12-01T13:05:10.797Z,1021.7
2022-12-01T13:06:13.849Z,1021.7
2022-12-01T13:07:16.999Z,1021.7
2022-12-01T13:08:19.766Z,1021.7
2022-12-01T13:09:23.381Z,1021.7
2022-12-01T13:10:26.182Z,1021.7
2022-12-01T13:11:29.152Z,1021.7
2022-12-01T13:12:32.189Z,1021.8
2022-12-01T13:13:35.625Z,1021.7
2022-12-01T13:14:39.697Z,1021.8
2022-12-01T13:15:42.885Z,1021.8
2022-12-01T13:16:45.990Z,1021.8
2022-12-01T13:17:49.245Z,1021.8
2022-12-01T13:18:51.737Z,1021.8
2022-12-01T13:19:54.890Z,1021.8
2022-12-01T13:20:57.978Z,1021.8
2022-12-01T13:22:01.303Z,1021.8
2022-12-01T13:23:05.440Z,1021.8
2022-12-01T13:24:09.221Z,1021.8